sensor_id;sensor_type;location;lat;lon;timestamp;P1;durP1;ratioP1;P2;durP2;ratioP2
49784;SDS011;35679;38.732;-121.358;2023-09-30T00:02:04;3.45;;;1.27;;
49784;SDS011;35679;38.732;-121.358;2023-09-30T00:04:54;1.20;;;1.20;;
49784;SDS011;35679;38.732;-121.358;2023-09-30T00:07:43;3.22;;;1.40;;
49784;SDS011;35679;38.732;-121.358;2023-09-30T00:10:33;1.20;;;1.20;;
49784;SDS011;35679;38.732;-121.358;2023-09-30T00:13:22;2.35;;;1.17;;
49784;SDS011;35679;38.732;-121.358;2023-09-30T00:16:12;1.58;;;1.20;;
49784;SDS011;35679;38.732;-121.358;2023-09-30T00:19:02;1.58;;;1.20;;
49784;SDS011;35679;38.732;-121.358;2023-09-30T00:21:51;1.20;;;1.20;;
49784;SDS011;35679;38.732;-121.358;2023-09-30T00:24:41;1.45;;;1.40;;
49784;SDS011;35679;38.732;-121.358;2023-09-30T00:27:30;1.40;;;1.20;;
49784;SDS011;35679;38.732;-121.358;2023-09-30T00:30:20;1.65;;;1.27;;
49784;SDS011;35679;38.732;-121.358;2023-09-30T00:33:10;1.85;;;1.48;;
49784;SDS011;35679;38.732;-121.358;2023-09-30T00:35:59;1.75;;;1.27;;
49784;SDS011;35679;38.732;-121.358;2023-09-30T00:38:58;1.50;;;1.40;;
49784;SDS011;35679;38.732;-121.358;2023-09-30T00:41:48;1.77;;;1.30;;
49784;SDS011;35679;38.732;-121.358;2023-09-30T00:44:37;1.70;;;1.60;;
49784;SDS011;35679;38.732;-121.358;2023-09-30T00:47:26;1.40;;;1.40;;
49784;SDS011;35679;38.732;-121.358;2023-09-30T00:50:16;1.60;;;1.60;;
49784;SDS011;35679;38.732;-121.358;2023-09-30T00:53:09;1.80;;;1.70;;
49784;SDS011;35679;38.732;-121.358;2023-09-30T00:55:59;2.33;;;1.70;;
49784;SDS011;35679;38.732;-121.358;2023-09-30T00:58:49;1.85;;;1.70;;
49784;SDS011;35679;38.732;-121.358;2023-09-30T01:01:42;1.90;;;1.80;;
49784;SDS011;35679;38.732;-121.358;2023-09-30T01:04:33;1.70;;;1.60;;
49784;SDS011;35679;38.732;-121.358;2023-09-30T01:07:23;1.70;;;1.70;;
49784;SDS011;35679;38.732;-121.358;2023-09-30T01:10:12;1.95;;;1.58;;
49784;SDS011;35679;38.732;-121.358;2023-09-30T01:13:02;1.70;;;1.60;;
49784;SDS011;35679;38.732;-121.358;2023-09-30T01:15:52;2.15;;;1.95;;
49784;SDS011;35679;38.732;-121.358;2023-09-30T01:18:41;1.80;;;1.80;;
49784;SDS011;35679;38.732;-121.358;2023-09-30T01:21:33;2.10;;;2.00;;
49784;SDS011;35679;38.732;-121.358;2023-09-30T01:24:23;1.88;;;1.85;;
49784;SDS011;35679;38.732;-121.358;2023-09-30T01:27:13;1.95;;;1.80;;
49784;SDS011;35679;38.732;-121.358;2023-09-30T01:30:05;1.85;;;1.75;;
49784;SDS011;35679;38.732;-121.358;2023-09-30T01:32:59;1.67;;;1.67;;
49784;SDS011;35679;38.732;-121.358;2023-09-30T01:35:48;1.90;;;1.80;;
49784;SDS011;35679;38.732;-121.358;2023-09-30T01:38:38;1.80;;;1.70;;
49784;SDS011;35679;38.732;-121.358;2023-09-30T01:41:27;1.35;;;1.35;;
49784;SDS011;35679;38.732;-121.358;2023-09-30T01:44:17;1.40;;;1.40;;
49784;SDS011;35679;38.732;-121.358;2023-09-30T01:47:06;1.58;;;1.48;;
49784;SDS011;35679;38.732;-121.358;2023-09-30T01:49:56;1.40;;;1.40;;
49784;SDS011;35679;38.732;-121.358;2023-09-30T01:52:45;1.90;;;1.80;;
49784;SDS011;35679;38.732;-121.358;2023-09-30T01:55:36;1.70;;;1.70;;
49784;SDS011;35679;38.732;-121.358;2023-09-30T01:58:25;1.77;;;1.77;;
49784;SDS011;35679;38.732;-121.358;2023-09-30T02:01:15;1.70;;;1.60;;
49784;SDS011;35679;38.732;-121.358;2023-09-30T02:04:05;2.40;;;2.30;;
49784;SDS011;35679;38.732;-121.358;2023-09-30T02:06:55;2.20;;;2.10;;
49784;SDS011;35679;38.732;-121.358;2023-09-30T02:09:46;2.47;;;2.40;;
49784;SDS011;35679;38.732;-121.358;2023-09-30T02:12:37;2.20;;;2.10;;
49784;SDS011;35679;38.732;-121.358;2023-09-30T02:15:26;2.40;;;2.30;;
49784;SDS011;35679;38.732;-121.358;2023-09-30T02:18:16;2.08;;;2.00;;
49784;SDS011;35679;38.732;-121.358;2023-09-30T02:21:06;2.22;;;2.13;;
49784;SDS011;35679;38.732;-121.358;2023-09-30T02:23:57;2.30;;;2.20;;
49784;SDS011;35679;38.732;-121.358;2023-09-30T02:26:47;2.38;;;2.28;;
49784;SDS011;35679;38.732;-121.358;2023-09-30T02:29:36;2.20;;;2.20;;
49784;SDS011;35679;38.732;-121.358;2023-09-30T02:32:25;2.40;;;2.30;;
49784;SDS011;35679;38.732;-121.358;2023-09-30T02:35:15;2.35;;;2.17;;
49784;SDS011;35679;38.732;-121.358;2023-09-30T02:38:05;2.17;;;2.08;;
49784;SDS011;35679;38.732;-121.358;2023-09-30T02:40:55;2.00;;;2.00;;
49784;SDS011;35679;38.732;-121.358;2023-09-30T02:43:44;2.20;;;2.20;;
49784;SDS011;35679;38.732;-121.358;2023-09-30T02:46:35;2.20;;;2.10;;
49784;SDS011;35679;38.732;-121.358;2023-09-30T02:49:26;2.05;;;2.05;;
49784;SDS011;35679;38.732;-121.358;2023-09-30T02:52:16;2.10;;;2.10;;
49784;SDS011;35679;38.732;-121.358;2023-09-30T02:55:05;2.75;;;2.65;;
49784;SDS011;35679;38.732;-121.358;2023-09-30T02:57:56;2.20;;;2.20;;
49784;SDS011;35679;38.732;-121.358;2023-09-30T03:00:50;2.60;;;2.50;;
49784;SDS011;35679;38.732;-121.358;2023-09-30T03:03:40;2.35;;;2.35;;
49784;SDS011;35679;38.732;-121.358;2023-09-30T03:06:35;3.25;;;3.00;;
49784;SDS011;35679;38.732;-121.358;2023-09-30T03:09:28;2.60;;;2.40;;
49784;SDS011;35679;38.732;-121.358;2023-09-30T03:12:17;2.38;;;2.28;;
49784;SDS011;35679;38.732;-121.358;2023-09-30T03:15:07;2.63;;;2.53;;
49784;SDS011;35679;38.732;-121.358;2023-09-30T03:17:57;2.35;;;2.17;;
49784;SDS011;35679;38.732;-121.358;2023-09-30T03:20:48;2.40;;;2.30;;
49784;SDS011;35679;38.732;-121.358;2023-09-30T03:23:39;2.55;;;2.45;;
49784;SDS011;35679;38.732;-121.358;2023-09-30T03:26:28;30.60;;;29.00;;
49784;SDS011;35679;38.732;-121.358;2023-09-30T03:29:18;30.95;;;29.35;;
49784;SDS011;35679;38.732;-121.358;2023-09-30T03:32:08;30.55;;;28.95;;
49784;SDS011;35679;38.732;-121.358;2023-09-30T03:34:58;30.60;;;29.00;;
49784;SDS011;35679;38.732;-121.358;2023-09-30T03:37:49;30.30;;;28.60;;
49784;SDS011;35679;38.732;-121.358;2023-09-30T03:40:40;30.33;;;28.73;;
49784;SDS011;35679;38.732;-121.358;2023-09-30T03:43:37;30.20;;;28.67;;
49784;SDS011;35679;38.732;-121.358;2023-09-30T03:46:29;28.77;;;27.25;;
49784;SDS011;35679;38.732;-121.358;2023-09-30T03:49:19;30.98;;;29.10;;
49784;SDS011;35679;38.732;-121.358;2023-09-30T03:52:09;30.63;;;28.92;;
49784;SDS011;35679;38.732;-121.358;2023-09-30T03:55:02;28.52;;;27.08;;
49784;SDS011;35679;38.732;-121.358;2023-09-30T03:57:55;27.02;;;25.63;;
49784;SDS011;35679;38.732;-121.358;2023-09-30T04:00:44;28.70;;;27.13;;
49784;SDS011;35679;38.732;-121.358;2023-09-30T04:03:34;28.40;;;26.90;;
49784;SDS011;35679;38.732;-121.358;2023-09-30T04:06:25;30.42;;;28.83;;
49784;SDS011;35679;38.732;-121.358;2023-09-30T04:09:17;22.50;;;21.50;;
49784;SDS011;35679;38.732;-121.358;2023-09-30T04:12:07;23.50;;;22.50;;
49784;SDS011;35679;38.732;-121.358;2023-09-30T04:14:57;23.88;;;22.77;;
49784;SDS011;35679;38.732;-121.358;2023-09-30T04:17:48;23.25;;;22.25;;
49784;SDS011;35679;38.732;-121.358;2023-09-30T04:20:37;23.00;;;21.90;;
49784;SDS011;35679;38.732;-121.358;2023-09-30T04:23:28;22.70;;;21.65;;
49784;SDS011;35679;38.732;-121.358;2023-09-30T04:26:17;23.10;;;22.10;;
49784;SDS011;35679;38.732;-121.358;2023-09-30T04:29:07;23.13;;;22.02;;
49784;SDS011;35679;38.732;-121.358;2023-09-30T04:31:58;23.60;;;22.40;;
49784;SDS011;35679;38.732;-121.358;2023-09-30T04:34:48;22.33;;;21.42;;
49784;SDS011;35679;38.732;-121.358;2023-09-30T04:37:39;24.15;;;23.00;;
49784;SDS011;35679;38.732;-121.358;2023-09-30T04:40:29;23.80;;;22.70;;
49784;SDS011;35679;38.732;-121.358;2023-09-30T04:43:18;23.60;;;22.58;;
49784;SDS011;35679;38.732;-121.358;2023-09-30T04:46:07;24.27;;;23.17;;
49784;SDS011;35679;38.732;-121.358;2023-09-30T04:48:57;20.67;;;19.83;;
49784;SDS011;35679;38.732;-121.358;2023-09-30T04:51:46;26.63;;;25.33;;
49784;SDS011;35679;38.732;-121.358;2023-09-30T04:54:37;27.10;;;25.90;;
49784;SDS011;35679;38.732;-121.358;2023-09-30T04:57:27;25.92;;;24.73;;
49784;SDS011;35679;38.732;-121.358;2023-09-30T05:00:17;26.20;;;24.90;;
49784;SDS011;35679;38.732;-121.358;2023-09-30T05:03:14;25.65;;;24.55;;
49784;SDS011;35679;38.732;-121.358;2023-09-30T05:06:03;26.35;;;25.10;;
49784;SDS011;35679;38.732;-121.358;2023-09-30T05:08:52;20.02;;;19.13;;
49784;SDS011;35679;38.732;-121.358;2023-09-30T05:11:43;20.02;;;19.23;;
49784;SDS011;35679;38.732;-121.358;2023-09-30T05:14:33;19.98;;;18.98;;
49784;SDS011;35679;38.732;-121.358;2023-09-30T05:17:23;21.20;;;20.30;;
49784;SDS011;35679;38.732;-121.358;2023-09-30T05:20:13;21.17;;;20.27;;
49784;SDS011;35679;38.732;-121.358;2023-09-30T05:25:55;2.70;;;1.38;;
49784;SDS011;35679;38.732;-121.358;2023-09-30T05:28:44;3.10;;;1.50;;
49784;SDS011;35679;38.732;-121.358;2023-09-30T05:31:34;2.20;;;2.10;;
49784;SDS011;35679;38.732;-121.358;2023-09-30T05:34:25;1.92;;;1.83;;
49784;SDS011;35679;38.732;-121.358;2023-09-30T05:37:16;2.08;;;1.98;;
49784;SDS011;35679;38.732;-121.358;2023-09-30T05:40:06;2.10;;;2.00;;
49784;SDS011;35679;38.732;-121.358;2023-09-30T05:43:04;1.83;;;1.73;;
49784;SDS011;35679;38.732;-121.358;2023-09-30T05:45:54;2.30;;;2.10;;
49784;SDS011;35679;38.732;-121.358;2023-09-30T05:48:48;3.28;;;1.23;;
49784;SDS011;35679;38.732;-121.358;2023-09-30T05:51:37;1.58;;;1.48;;
49784;SDS011;35679;38.732;-121.358;2023-09-30T05:54:27;1.58;;;1.20;;
49784;SDS011;35679;38.732;-121.358;2023-09-30T05:57:17;2.45;;;1.30;;
49784;SDS011;35679;38.732;-121.358;2023-09-30T06:00:07;1.88;;;1.42;;
49784;SDS011;35679;38.732;-121.358;2023-09-30T06:03:03;2.20;;;1.35;;
49784;SDS011;35679;38.732;-121.358;2023-09-30T06:05:56;1.90;;;1.40;;
49784;SDS011;35679;38.732;-121.358;2023-09-30T06:08:45;1.27;;;1.20;;
49784;SDS011;35679;38.732;-121.358;2023-09-30T06:11:35;1.65;;;1.42;;
49784;SDS011;35679;38.732;-121.358;2023-09-30T06:14:24;1.92;;;1.30;;
49784;SDS011;35679;38.732;-121.358;2023-09-30T06:17:16;3.42;;;1.42;;
49784;SDS011;35679;38.732;-121.358;2023-09-30T06:20:05;1.92;;;1.30;;
49784;SDS011;35679;38.732;-121.358;2023-09-30T06:23:06;1.55;;;1.45;;
49784;SDS011;35679;38.732;-121.358;2023-09-30T06:25:55;1.40;;;1.40;;
49784;SDS011;35679;38.732;-121.358;2023-09-30T06:28:45;1.75;;;1.30;;
49784;SDS011;35679;38.732;-121.358;2023-09-30T06:31:36;1.55;;;1.45;;
49784;SDS011;35679;38.732;-121.358;2023-09-30T06:34:25;2.40;;;1.80;;
49784;SDS011;35679;38.732;-121.358;2023-09-30T06:37:15;1.45;;;1.35;;
49784;SDS011;35679;38.732;-121.358;2023-09-30T06:40:05;1.52;;;1.42;;
49784;SDS011;35679;38.732;-121.358;2023-09-30T06:42:56;2.92;;;1.48;;
49784;SDS011;35679;38.732;-121.358;2023-09-30T06:45:46;1.92;;;1.50;;
49784;SDS011;35679;38.732;-121.358;2023-09-30T06:48:36;1.67;;;1.30;;
49784;SDS011;35679;38.732;-121.358;2023-09-30T06:51:26;1.77;;;1.33;;
49784;SDS011;35679;38.732;-121.358;2023-09-30T06:54:15;1.60;;;1.33;;
49784;SDS011;35679;38.732;-121.358;2023-09-30T06:57:05;1.73;;;1.50;;
49784;SDS011;35679;38.732;-121.358;2023-09-30T06:59:56;1.42;;;1.27;;
49784;SDS011;35679;38.732;-121.358;2023-09-30T07:02:45;2.88;;;1.17;;
49784;SDS011;35679;38.732;-121.358;2023-09-30T07:05:39;1.20;;;1.20;;
49784;SDS011;35679;38.732;-121.358;2023-09-30T07:08:28;2.85;;;1.35;;
49784;SDS011;35679;38.732;-121.358;2023-09-30T07:11:30;1.98;;;1.40;;
49784;SDS011;35679;38.732;-121.358;2023-09-30T07:14:22;1.55;;;1.42;;
49784;SDS011;35679;38.732;-121.358;2023-09-30T07:17:11;2.45;;;1.38;;
49784;SDS011;35679;38.732;-121.358;2023-09-30T07:20:01;1.52;;;1.40;;
49784;SDS011;35679;38.732;-121.358;2023-09-30T07:22:53;2.65;;;1.52;;
49784;SDS011;35679;38.732;-121.358;2023-09-30T07:26:02;3.35;;;1.65;;
49784;SDS011;35679;38.732;-121.358;2023-09-30T07:28:52;1.52;;;1.42;;
49784;SDS011;35679;38.732;-121.358;2023-09-30T07:31:43;1.20;;;1.20;;
49784;SDS011;35679;38.732;-121.358;2023-09-30T07:34:32;1.38;;;1.30;;
49784;SDS011;35679;38.732;-121.358;2023-09-30T07:37:21;1.83;;;1.40;;
49784;SDS011;35679;38.732;-121.358;2023-09-30T07:40:11;1.50;;;1.38;;
49784;SDS011;35679;38.732;-121.358;2023-09-30T07:43:01;1.42;;;1.20;;
49784;SDS011;35679;38.732;-121.358;2023-09-30T07:45:51;1.35;;;1.20;;
49784;SDS011;35679;38.732;-121.358;2023-09-30T07:48:44;3.20;;;1.42;;
49784;SDS011;35679;38.732;-121.358;2023-09-30T07:51:33;3.75;;;1.70;;
49784;SDS011;35679;38.732;-121.358;2023-09-30T07:54:24;1.40;;;1.30;;
49784;SDS011;35679;38.732;-121.358;2023-09-30T07:57:18;1.98;;;1.63;;
49784;SDS011;35679;38.732;-121.358;2023-09-30T08:00:09;2.22;;;1.52;;
49784;SDS011;35679;38.732;-121.358;2023-09-30T08:03:03;1.48;;;1.30;;
49784;SDS011;35679;38.732;-121.358;2023-09-30T08:05:55;1.63;;;1.38;;
49784;SDS011;35679;38.732;-121.358;2023-09-30T08:08:45;3.28;;;1.40;;
49784;SDS011;35679;38.732;-121.358;2023-09-30T08:11:35;2.72;;;1.50;;
49784;SDS011;35679;38.732;-121.358;2023-09-30T08:14:25;3.20;;;1.65;;
49784;SDS011;35679;38.732;-121.358;2023-09-30T08:17:15;1.85;;;1.27;;
49784;SDS011;35679;38.732;-121.358;2023-09-30T08:20:06;1.33;;;1.33;;
49784;SDS011;35679;38.732;-121.358;2023-09-30T08:22:59;1.70;;;1.60;;
49784;SDS011;35679;38.732;-121.358;2023-09-30T08:25:48;1.33;;;1.20;;
49784;SDS011;35679;38.732;-121.358;2023-09-30T08:28:38;2.15;;;1.48;;
49784;SDS011;35679;38.732;-121.358;2023-09-30T08:31:27;1.92;;;1.40;;
49784;SDS011;35679;38.732;-121.358;2023-09-30T08:34:16;2.13;;;1.45;;
49784;SDS011;35679;38.732;-121.358;2023-09-30T08:37:11;1.98;;;1.55;;
49784;SDS011;35679;38.732;-121.358;2023-09-30T08:40:00;2.15;;;1.40;;
49784;SDS011;35679;38.732;-121.358;2023-09-30T08:42:53;1.67;;;1.40;;
49784;SDS011;35679;38.732;-121.358;2023-09-30T08:45:43;1.60;;;1.50;;
49784;SDS011;35679;38.732;-121.358;2023-09-30T08:48:39;2.33;;;1.50;;
49784;SDS011;35679;38.732;-121.358;2023-09-30T08:51:29;3.33;;;1.50;;
49784;SDS011;35679;38.732;-121.358;2023-09-30T08:54:20;3.75;;;1.58;;
49784;SDS011;35679;38.732;-121.358;2023-09-30T08:57:09;2.42;;;1.60;;
49784;SDS011;35679;38.732;-121.358;2023-09-30T08:59:59;1.40;;;1.30;;
49784;SDS011;35679;38.732;-121.358;2023-09-30T09:02:49;1.38;;;1.30;;
49784;SDS011;35679;38.732;-121.358;2023-09-30T09:05:38;1.50;;;1.40;;
49784;SDS011;35679;38.732;-121.358;2023-09-30T09:08:29;3.28;;;1.48;;
49784;SDS011;35679;38.732;-121.358;2023-09-30T09:11:18;1.90;;;1.50;;
49784;SDS011;35679;38.732;-121.358;2023-09-30T09:14:08;2.30;;;1.30;;
49784;SDS011;35679;38.732;-121.358;2023-09-30T09:17:01;1.73;;;1.40;;
49784;SDS011;35679;38.732;-121.358;2023-09-30T09:20:01;1.80;;;1.40;;
49784;SDS011;35679;38.732;-121.358;2023-09-30T09:22:55;3.15;;;1.55;;
49784;SDS011;35679;38.732;-121.358;2023-09-30T09:25:48;2.45;;;1.80;;
49784;SDS011;35679;38.732;-121.358;2023-09-30T09:28:39;1.40;;;1.30;;
49784;SDS011;35679;38.732;-121.358;2023-09-30T09:31:33;1.65;;;1.35;;
49784;SDS011;35679;38.732;-121.358;2023-09-30T09:34:24;2.17;;;1.40;;
49784;SDS011;35679;38.732;-121.358;2023-09-30T09:40:03;1.60;;;1.50;;
49784;SDS011;35679;38.732;-121.358;2023-09-30T09:42:56;2.67;;;1.45;;
49784;SDS011;35679;38.732;-121.358;2023-09-30T09:45:47;2.15;;;1.60;;
49784;SDS011;35679;38.732;-121.358;2023-09-30T09:48:38;1.80;;;1.33;;
49784;SDS011;35679;38.732;-121.358;2023-09-30T09:51:27;1.83;;;1.30;;
49784;SDS011;35679;38.732;-121.358;2023-09-30T09:54:18;2.97;;;1.50;;
49784;SDS011;35679;38.732;-121.358;2023-09-30T09:57:08;1.20;;;1.20;;
49784;SDS011;35679;38.732;-121.358;2023-09-30T09:59:59;1.50;;;1.40;;
49784;SDS011;35679;38.732;-121.358;2023-09-30T10:02:51;2.63;;;1.53;;
49784;SDS011;35679;38.732;-121.358;2023-09-30T10:05:41;2.28;;;1.20;;
49784;SDS011;35679;38.732;-121.358;2023-09-30T10:08:35;2.72;;;1.48;;
49784;SDS011;35679;38.732;-121.358;2023-09-30T10:11:27;1.98;;;1.35;;
49784;SDS011;35679;38.732;-121.358;2023-09-30T10:14:30;1.40;;;1.30;;
49784;SDS011;35679;38.732;-121.358;2023-09-30T10:17:36;1.48;;;1.30;;
49784;SDS011;35679;38.732;-121.358;2023-09-30T10:20:49;1.58;;;1.48;;
49784;SDS011;35679;38.732;-121.358;2023-09-30T10:23:39;1.50;;;1.40;;
49784;SDS011;35679;38.732;-121.358;2023-09-30T10:26:29;1.40;;;1.30;;
49784;SDS011;35679;38.732;-121.358;2023-09-30T10:29:18;3.85;;;1.50;;
49784;SDS011;35679;38.732;-121.358;2023-09-30T10:32:07;1.40;;;1.40;;
49784;SDS011;35679;38.732;-121.358;2023-09-30T10:34:57;1.40;;;1.30;;
49784;SDS011;35679;38.732;-121.358;2023-09-30T10:37:47;3.05;;;1.48;;
49784;SDS011;35679;38.732;-121.358;2023-09-30T10:40:37;1.38;;;1.30;;
49784;SDS011;35679;38.732;-121.358;2023-09-30T10:43:30;2.13;;;1.38;;
49784;SDS011;35679;38.732;-121.358;2023-09-30T10:52:08;1.40;;;1.40;;
49784;SDS011;35679;38.732;-121.358;2023-09-30T10:55:02;1.77;;;1.50;;
49784;SDS011;35679;38.732;-121.358;2023-09-30T10:57:53;3.60;;;1.88;;
49784;SDS011;35679;38.732;-121.358;2023-09-30T11:01:01;1.50;;;1.40;;
49784;SDS011;35679;38.732;-121.358;2023-09-30T11:03:58;1.63;;;1.52;;
49784;SDS011;35679;38.732;-121.358;2023-09-30T11:06:52;2.80;;;1.40;;
49784;SDS011;35679;38.732;-121.358;2023-09-30T11:09:42;1.33;;;1.30;;
49784;SDS011;35679;38.732;-121.358;2023-09-30T11:12:31;1.52;;;1.40;;
49784;SDS011;35679;38.732;-121.358;2023-09-30T11:15:21;1.58;;;1.27;;
49784;SDS011;35679;38.732;-121.358;2023-09-30T11:18:14;2.72;;;1.52;;
49784;SDS011;35679;38.732;-121.358;2023-09-30T11:21:04;1.25;;;1.25;;
49784;SDS011;35679;38.732;-121.358;2023-09-30T11:24:01;1.60;;;1.50;;
49784;SDS011;35679;38.732;-121.358;2023-09-30T11:26:54;1.70;;;1.60;;
49784;SDS011;35679;38.732;-121.358;2023-09-30T11:29:50;1.30;;;1.30;;
49784;SDS011;35679;38.732;-121.358;2023-09-30T11:32:40;1.40;;;1.30;;
49784;SDS011;35679;38.732;-121.358;2023-09-30T11:35:31;1.75;;;1.42;;
49784;SDS011;35679;38.732;-121.358;2023-09-30T11:38:20;2.15;;;1.45;;
49784;SDS011;35679;38.732;-121.358;2023-09-30T11:41:10;1.45;;;1.40;;
49784;SDS011;35679;38.732;-121.358;2023-09-30T11:44:00;2.10;;;1.95;;
49784;SDS011;35679;38.732;-121.358;2023-09-30T11:47:01;1.48;;;1.40;;
49784;SDS011;35679;38.732;-121.358;2023-09-30T11:49:56;1.60;;;1.40;;
49784;SDS011;35679;38.732;-121.358;2023-09-30T11:52:46;2.20;;;1.40;;
49784;SDS011;35679;38.732;-121.358;2023-09-30T11:55:35;2.58;;;1.50;;
49784;SDS011;35679;38.732;-121.358;2023-09-30T11:58:26;1.42;;;1.33;;
49784;SDS011;35679;38.732;-121.358;2023-09-30T12:01:16;2.28;;;1.52;;
49784;SDS011;35679;38.732;-121.358;2023-09-30T12:04:05;2.78;;;1.77;;
49784;SDS011;35679;38.732;-121.358;2023-09-30T12:06:55;1.60;;;1.50;;
49784;SDS011;35679;38.732;-121.358;2023-09-30T12:09:46;1.30;;;1.30;;
49784;SDS011;35679;38.732;-121.358;2023-09-30T12:12:35;1.50;;;1.40;;
49784;SDS011;35679;38.732;-121.358;2023-09-30T12:15:28;3.00;;;1.80;;
49784;SDS011;35679;38.732;-121.358;2023-09-30T12:18:17;2.47;;;1.55;;
49784;SDS011;35679;38.732;-121.358;2023-09-30T12:21:12;2.08;;;1.40;;
49784;SDS011;35679;38.732;-121.358;2023-09-30T12:24:08;2.50;;;1.50;;
49784;SDS011;35679;38.732;-121.358;2023-09-30T12:26:58;2.15;;;1.40;;
49784;SDS011;35679;38.732;-121.358;2023-09-30T12:29:47;4.88;;;1.58;;
49784;SDS011;35679;38.732;-121.358;2023-09-30T12:32:37;3.55;;;1.52;;
49784;SDS011;35679;38.732;-121.358;2023-09-30T12:35:28;5.15;;;1.70;;
49784;SDS011;35679;38.732;-121.358;2023-09-30T12:38:17;2.30;;;1.50;;
49784;SDS011;35679;38.732;-121.358;2023-09-30T12:41:07;1.55;;;1.20;;
49784;SDS011;35679;38.732;-121.358;2023-09-30T12:43:56;3.13;;;1.60;;
49784;SDS011;35679;38.732;-121.358;2023-09-30T12:46:45;1.60;;;1.50;;
49784;SDS011;35679;38.732;-121.358;2023-09-30T12:49:36;3.08;;;1.40;;
49784;SDS011;35679;38.732;-121.358;2023-09-30T12:52:26;2.22;;;1.67;;
49784;SDS011;35679;38.732;-121.358;2023-09-30T12:55:15;2.65;;;1.50;;
49784;SDS011;35679;38.732;-121.358;2023-09-30T12:58:04;3.83;;;1.75;;
49784;SDS011;35679;38.732;-121.358;2023-09-30T13:00:56;6.43;;;1.67;;
49784;SDS011;35679;38.732;-121.358;2023-09-30T13:04:02;4.78;;;1.92;;
49784;SDS011;35679;38.732;-121.358;2023-09-30T13:06:51;6.88;;;1.77;;
49784;SDS011;35679;38.732;-121.358;2023-09-30T13:09:41;2.88;;;1.50;;
49784;SDS011;35679;38.732;-121.358;2023-09-30T13:12:31;3.08;;;1.65;;
49784;SDS011;35679;38.732;-121.358;2023-09-30T13:15:21;5.13;;;1.40;;
49784;SDS011;35679;38.732;-121.358;2023-09-30T13:18:12;5.32;;;1.75;;
49784;SDS011;35679;38.732;-121.358;2023-09-30T13:21:02;14.15;;;13.05;;
49784;SDS011;35679;38.732;-121.358;2023-09-30T13:23:54;20.50;;;19.27;;
49784;SDS011;35679;38.732;-121.358;2023-09-30T13:26:43;21.40;;;20.30;;
49784;SDS011;35679;38.732;-121.358;2023-09-30T13:29:33;30.30;;;28.58;;
49784;SDS011;35679;38.732;-121.358;2023-09-30T13:32:22;29.13;;;27.52;;
49784;SDS011;35679;38.732;-121.358;2023-09-30T13:35:11;25.98;;;24.50;;
49784;SDS011;35679;38.732;-121.358;2023-09-30T13:38:01;26.45;;;24.58;;
49784;SDS011;35679;38.732;-121.358;2023-09-30T13:40:52;12.10;;;1.67;;
49784;SDS011;35679;38.732;-121.358;2023-09-30T13:43:41;5.50;;;1.75;;
49784;SDS011;35679;38.732;-121.358;2023-09-30T13:46:30;3.00;;;1.50;;
49784;SDS011;35679;38.732;-121.358;2023-09-30T13:49:20;2.95;;;1.48;;
49784;SDS011;35679;38.732;-121.358;2023-09-30T13:52:09;5.72;;;2.00;;
49784;SDS011;35679;38.732;-121.358;2023-09-30T13:55:06;5.45;;;1.75;;
49784;SDS011;35679;38.732;-121.358;2023-09-30T13:57:57;6.05;;;1.65;;
49784;SDS011;35679;38.732;-121.358;2023-09-30T14:00:47;5.38;;;1.60;;
49784;SDS011;35679;38.732;-121.358;2023-09-30T14:03:36;7.05;;;2.10;;
49784;SDS011;35679;38.732;-121.358;2023-09-30T14:06:26;6.45;;;1.58;;
49784;SDS011;35679;38.732;-121.358;2023-09-30T14:09:17;3.10;;;1.60;;
49784;SDS011;35679;38.732;-121.358;2023-09-30T14:12:09;4.13;;;1.40;;
49784;SDS011;35679;38.732;-121.358;2023-09-30T14:14:59;8.63;;;1.80;;
49784;SDS011;35679;38.732;-121.358;2023-09-30T14:17:48;5.07;;;1.95;;
49784;SDS011;35679;38.732;-121.358;2023-09-30T14:20:37;3.00;;;1.90;;
49784;SDS011;35679;38.732;-121.358;2023-09-30T14:23:27;4.70;;;1.50;;
49784;SDS011;35679;38.732;-121.358;2023-09-30T14:26:17;3.50;;;1.40;;
49784;SDS011;35679;38.732;-121.358;2023-09-30T14:29:06;3.85;;;1.70;;
49784;SDS011;35679;38.732;-121.358;2023-09-30T14:31:55;1.40;;;1.30;;
49784;SDS011;35679;38.732;-121.358;2023-09-30T14:34:46;4.00;;;1.50;;
49784;SDS011;35679;38.732;-121.358;2023-09-30T14:37:35;4.65;;;1.65;;
49784;SDS011;35679;38.732;-121.358;2023-09-30T14:40:25;3.75;;;1.40;;
49784;SDS011;35679;38.732;-121.358;2023-09-30T14:43:14;5.30;;;1.50;;
49784;SDS011;35679;38.732;-121.358;2023-09-30T14:46:04;8.07;;;1.88;;
49784;SDS011;35679;38.732;-121.358;2023-09-30T14:48:54;2.72;;;1.60;;
49784;SDS011;35679;38.732;-121.358;2023-09-30T14:51:44;2.35;;;1.50;;
49784;SDS011;35679;38.732;-121.358;2023-09-30T14:54:37;4.88;;;1.58;;
49784;SDS011;35679;38.732;-121.358;2023-09-30T14:57:26;2.60;;;2.40;;
49784;SDS011;35679;38.732;-121.358;2023-09-30T15:00:16;2.70;;;1.60;;
49784;SDS011;35679;38.732;-121.358;2023-09-30T15:03:05;3.63;;;1.48;;
49784;SDS011;35679;38.732;-121.358;2023-09-30T15:05:58;6.65;;;1.50;;
49784;SDS011;35679;38.732;-121.358;2023-09-30T15:08:50;3.42;;;1.67;;
49784;SDS011;35679;38.732;-121.358;2023-09-30T15:11:39;3.45;;;1.60;;
49784;SDS011;35679;38.732;-121.358;2023-09-30T15:14:29;2.85;;;1.58;;
49784;SDS011;35679;38.732;-121.358;2023-09-30T15:17:18;1.70;;;1.60;;
49784;SDS011;35679;38.732;-121.358;2023-09-30T15:20:08;1.92;;;1.50;;
49784;SDS011;35679;38.732;-121.358;2023-09-30T15:22:58;2.30;;;1.60;;
49784;SDS011;35679;38.732;-121.358;2023-09-30T15:25:48;1.55;;;1.42;;
49784;SDS011;35679;38.732;-121.358;2023-09-30T15:28:37;2.85;;;1.50;;
49784;SDS011;35679;38.732;-121.358;2023-09-30T15:31:27;1.60;;;1.50;;
49784;SDS011;35679;38.732;-121.358;2023-09-30T15:34:18;2.42;;;1.40;;
49784;SDS011;35679;38.732;-121.358;2023-09-30T15:37:07;1.70;;;1.40;;
49784;SDS011;35679;38.732;-121.358;2023-09-30T15:39:57;1.63;;;1.30;;
49784;SDS011;35679;38.732;-121.358;2023-09-30T15:42:46;2.00;;;1.52;;
49784;SDS011;35679;38.732;-121.358;2023-09-30T15:45:36;1.83;;;1.70;;
49784;SDS011;35679;38.732;-121.358;2023-09-30T15:48:25;1.70;;;1.30;;
49784;SDS011;35679;38.732;-121.358;2023-09-30T15:51:15;2.45;;;1.30;;
49784;SDS011;35679;38.732;-121.358;2023-09-30T15:54:04;1.50;;;1.40;;
49784;SDS011;35679;38.732;-121.358;2023-09-30T15:56:54;1.50;;;1.40;;
49784;SDS011;35679;38.732;-121.358;2023-09-30T15:59:43;2.55;;;1.40;;
49784;SDS011;35679;38.732;-121.358;2023-09-30T16:02:32;3.53;;;1.95;;
49784;SDS011;35679;38.732;-121.358;2023-09-30T16:05:22;1.50;;;1.50;;
49784;SDS011;35679;38.732;-121.358;2023-09-30T16:08:11;1.58;;;1.50;;
49784;SDS011;35679;38.732;-121.358;2023-09-30T16:11:00;2.30;;;1.65;;
49784;SDS011;35679;38.732;-121.358;2023-09-30T16:13:50;1.73;;;1.63;;
49784;SDS011;35679;38.732;-121.358;2023-09-30T16:16:40;1.88;;;1.40;;
49784;SDS011;35679;38.732;-121.358;2023-09-30T16:19:29;1.60;;;1.50;;
49784;SDS011;35679;38.732;-121.358;2023-09-30T16:22:19;2.60;;;1.60;;
49784;SDS011;35679;38.732;-121.358;2023-09-30T16:25:08;1.90;;;1.80;;
49784;SDS011;35679;38.732;-121.358;2023-09-30T16:27:57;1.73;;;1.60;;
49784;SDS011;35679;38.732;-121.358;2023-09-30T16:30:47;1.60;;;1.50;;
49784;SDS011;35679;38.732;-121.358;2023-09-30T16:33:37;1.83;;;1.63;;